Harmon, Arkansas
Current Conditions -  °F | °C
As of 11:53 PM on Friday 24 Oct 2014 (Local Time) from KFYV Reporting Station
Clear Clear  
Wind Chill: 14°   Ceiling: Unl
Heat Index: 14°   Visibility: 10mi
Dew Point: 14°   Wind: 5mph
Humidity: 97%   Direction: 180°S
Pressure: 30.1"   Gusts: NA
Location:  35.9902°N, 94.083°W
Report Text: KFYV 250453Z AUTO 18004KT 10SM CLR 14/14 A3010 RMK AO2 SLP184 T01440139
Loading
Personal Weather Stations






























Interactive Weather Map
Tropical Storm Tracking
New forecast layout! Learn more

10-Day Weather Forecast

Advertisements
Track Severe Weather on mobile